sensor_id;sensor_type;location;lat;lon;timestamp;pressure;altitude;pressure_sealevel;temperature;humidity
11085;BME280;5596;46.826;8.650;2023-05-01T00:02:06;96079.19;;;12.41;100.00
11085;BME280;5596;46.826;8.650;2023-05-01T00:04:33;96078.66;;;12.44;100.00
11085;BME280;5596;46.826;8.650;2023-05-01T00:07:01;96085.97;;;12.43;100.00
11085;BME280;5596;46.826;8.650;2023-05-01T00:09:31;96084.31;;;12.42;100.00
11085;BME280;5596;46.826;8.650;2023-05-01T00:11:57;96080.25;;;12.40;100.00
11085;BME280;5596;46.826;8.650;2023-05-01T00:14:26;96078.09;;;12.42;100.00
11085;BME280;5596;46.826;8.650;2023-05-01T00:16:53;96075.00;;;12.33;100.00
11085;BME280;5596;46.826;8.650;2023-05-01T00:19:20;96070.09;;;12.30;100.00
11085;BME280;5596;46.826;8.650;2023-05-01T00:21:47;96073.59;;;12.31;100.00
11085;BME280;5596;46.826;8.650;2023-05-01T00:24:16;96074.09;;;12.28;100.00
11085;BME280;5596;46.826;8.650;2023-05-01T00:26:43;96069.75;;;12.27;100.00
11085;BME280;5596;46.826;8.650;2023-05-01T00:29:10;96074.69;;;12.30;100.00
11085;BME280;5596;46.826;8.650;2023-05-01T00:31:39;96067.38;;;12.30;100.00
11085;BME280;5596;46.826;8.650;2023-05-01T00:34:08;96067.13;;;12.32;100.00
11085;BME280;5596;46.826;8.650;2023-05-01T00:36:35;96066.38;;;12.36;100.00
11085;BME280;5596;46.826;8.650;2023-05-01T00:39:02;96064.25;;;12.38;100.00
11085;BME280;5596;46.826;8.650;2023-05-01T00:41:30;96058.00;;;12.38;100.00
11085;BME280;5596;46.826;8.650;2023-05-01T00:43:57;96060.38;;;12.34;100.00
11085;BME280;5596;46.826;8.650;2023-05-01T00:46:24;96057.66;;;12.34;100.00
11085;BME280;5596;46.826;8.650;2023-05-01T00:48:53;96054.97;;;12.34;100.00
11085;BME280;5596;46.826;8.650;2023-05-01T00:51:19;96057.66;;;12.34;100.00
11085;BME280;5596;46.826;8.650;2023-05-01T00:53:47;96052.84;;;12.36;100.00
11085;BME280;5596;46.826;8.650;2023-05-01T00:56:14;96050.13;;;12.36;100.00
11085;BME280;5596;46.826;8.650;2023-05-01T00:58:41;96052.78;;;12.31;100.00
11085;BME280;5596;46.826;8.650;2023-05-01T01:01:08;96054.25;;;12.22;100.00
11085;BME280;5596;46.826;8.650;2023-05-01T01:03:37;96049.25;;;12.14;100.00
11085;BME280;5596;46.826;8.650;2023-05-01T01:06:08;96042.38;;;12.06;100.00
11085;BME280;5596;46.826;8.650;2023-05-01T01:08:37;96040.75;;;12.05;100.00
11085;BME280;5596;46.826;8.650;2023-05-01T01:11:15;96040.50;;;12.07;100.00
11085;BME280;5596;46.826;8.650;2023-05-01T01:13:48;96038.63;;;12.07;100.00
11085;BME280;5596;46.826;8.650;2023-05-01T01:16:20;96032.63;;;12.05;100.00
11085;BME280;5596;46.826;8.650;2023-05-01T01:18:49;96038.28;;;12.04;100.00
11085;BME280;5596;46.826;8.650;2023-05-01T01:21:20;96032.03;;;12.03;100.00
11085;BME280;5596;46.826;8.650;2023-05-01T01:23:52;96034.09;;;11.96;100.00
11085;BME280;5596;46.826;8.650;2023-05-01T01:26:34;96037.13;;;12.00;100.00
11085;BME280;5596;46.826;8.650;2023-05-01T01:29:17;96024.97;;;12.02;100.00
11085;BME280;5596;46.826;8.650;2023-05-01T01:31:50;96031.22;;;12.03;100.00
11085;BME280;5596;46.826;8.650;2023-05-01T01:34:24;96027.44;;;12.04;100.00
11085;BME280;5596;46.826;8.650;2023-05-01T01:36:55;96023.94;;;12.03;100.00
11085;BME280;5596;46.826;8.650;2023-05-01T01:39:28;96027.69;;;12.02;100.00
11085;BME280;5596;46.826;8.650;2023-05-01T01:41:56;96025.81;;;12.03;100.00
11085;BME280;5596;46.826;8.650;2023-05-01T01:44:24;96027.69;;;12.02;100.00
11085;BME280;5596;46.826;8.650;2023-05-01T01:46:54;96026.63;;;12.03;100.00
11085;BME280;5596;46.826;8.650;2023-05-01T01:49:22;96036.88;;;12.01;100.00
11085;BME280;5596;46.826;8.650;2023-05-01T01:51:51;96034.16;;;12.01;100.00
11085;BME280;5596;46.826;8.650;2023-05-01T01:54:21;96036.63;;;12.03;100.00
11085;BME280;5596;46.826;8.650;2023-05-01T01:56:49;96036.88;;;12.01;100.00
11085;BME280;5596;46.826;8.650;2023-05-01T01:59:16;96025.97;;;11.96;100.00
11085;BME280;5596;46.826;8.650;2023-05-01T02:01:44;96031.88;;;11.93;100.00
11085;BME280;5596;46.826;8.650;2023-05-01T02:04:12;96033.69;;;11.88;100.00
11085;BME280;5596;46.826;8.650;2023-05-01T02:06:40;96030.09;;;11.82;100.00
11085;BME280;5596;46.826;8.650;2023-05-01T02:09:09;96030.56;;;11.79;100.00
11085;BME280;5596;46.826;8.650;2023-05-01T02:11:37;96032.47;;;11.79;100.00
11085;BME280;5596;46.826;8.650;2023-05-01T02:14:04;96024.09;;;11.80;100.00
11085;BME280;5596;46.826;8.650;2023-05-01T02:16:34;96023.28;;;11.80;100.00
11085;BME280;5596;46.826;8.650;2023-05-01T02:19:02;96026.47;;;11.77;100.00
11085;BME280;5596;46.826;8.650;2023-05-01T02:21:30;96026.13;;;11.73;100.00
11085;BME280;5596;46.826;8.650;2023-05-01T02:23:58;96022.94;;;11.76;100.00
11085;BME280;5596;46.826;8.650;2023-05-01T02:26:28;96024.81;;;11.75;100.00
11085;BME280;5596;46.826;8.650;2023-05-01T02:28:55;96014.81;;;11.76;100.00
11085;BME280;5596;46.826;8.650;2023-05-01T02:31:23;96019.06;;;11.72;100.00
11085;BME280;5596;46.826;8.650;2023-05-01T02:33:49;96015.13;;;11.63;100.00
11085;BME280;5596;46.826;8.650;2023-05-01T02:36:16;96008.91;;;11.62;100.00
11085;BME280;5596;46.826;8.650;2023-05-01T02:38:43;96009.72;;;11.63;100.00
11085;BME280;5596;46.826;8.650;2023-05-01T02:41:11;96013.47;;;11.62;100.00
11085;BME280;5596;46.826;8.650;2023-05-01T02:43:42;96008.91;;;11.62;100.00
11085;BME280;5596;46.826;8.650;2023-05-01T02:46:09;96005.03;;;11.58;100.00
11085;BME280;5596;46.826;8.650;2023-05-01T02:48:37;96002.50;;;11.52;100.00
11085;BME280;5596;46.826;8.650;2023-05-01T02:51:04;96001.34;;;11.48;100.00
11085;BME280;5596;46.826;8.650;2023-05-01T02:53:31;96005.78;;;11.54;100.00
11085;BME280;5596;46.826;8.650;2023-05-01T02:56:12;96001.66;;;11.51;100.00
11085;BME280;5596;46.826;8.650;2023-05-01T02:58:39;95999.94;;;11.45;100.00
11085;BME280;5596;46.826;8.650;2023-05-01T03:01:07;95992.56;;;11.41;100.00
11085;BME280;5596;46.826;8.650;2023-05-01T03:03:35;95999.75;;;11.35;100.00
11085;BME280;5596;46.826;8.650;2023-05-01T03:06:02;95999.19;;;11.33;100.00
11085;BME280;5596;46.826;8.650;2023-05-01T03:08:29;95997.31;;;11.33;100.00
11085;BME280;5596;46.826;8.650;2023-05-01T03:10:56;95996.72;;;11.31;100.00
11085;BME280;5596;46.826;8.650;2023-05-01T03:13:22;95999.09;;;11.28;100.00
11085;BME280;5596;46.826;8.650;2023-05-01T03:15:49;95995.16;;;11.19;100.00
11085;BME280;5596;46.826;8.650;2023-05-01T03:18:17;95995.97;;;11.19;100.00
11085;BME280;5596;46.826;8.650;2023-05-01T03:20:49;95994.91;;;11.20;100.00
11085;BME280;5596;46.826;8.650;2023-05-01T03:23:17;95994.75;;;11.27;100.00
11085;BME280;5596;46.826;8.650;2023-05-01T03:25:43;95996.63;;;11.26;100.00
11085;BME280;5596;46.826;8.650;2023-05-01T03:28:10;95994.56;;;11.17;100.00
11085;BME280;5596;46.826;8.650;2023-05-01T03:30:37;96000.78;;;11.17;100.00
11085;BME280;5596;46.826;8.650;2023-05-01T03:33:04;95999.16;;;11.16;100.00
11085;BME280;5596;46.826;8.650;2023-05-01T03:35:33;95995.38;;;11.17;100.00
11085;BME280;5596;46.826;8.650;2023-05-01T03:38:01;95989.31;;;11.10;100.00
11085;BME280;5596;46.826;8.650;2023-05-01T03:40:47;95988.16;;;11.06;100.00
11085;BME280;5596;46.826;8.650;2023-05-01T03:43:37;95996.16;;;11.01;100.00
11085;BME280;5596;46.826;8.650;2023-05-01T03:46:09;95995.78;;;11.09;100.00
11085;BME280;5596;46.826;8.650;2023-05-01T03:48:36;95994.25;;;11.13;100.00
11085;BME280;5596;46.826;8.650;2023-05-01T03:51:04;95995.97;;;11.19;100.00
11085;BME280;5596;46.826;8.650;2023-05-01T03:53:33;96000.78;;;11.17;100.00
11085;BME280;5596;46.826;8.650;2023-05-01T03:56:03;95995.31;;;11.12;100.00
11085;BME280;5596;46.826;8.650;2023-05-01T03:58:32;95993.06;;;11.09;100.00
11085;BME280;5596;46.826;8.650;2023-05-01T04:00:59;95990.28;;;11.04;100.00
11085;BME280;5596;46.826;8.650;2023-05-01T04:03:28;95996.41;;;10.99;100.00
11085;BME280;5596;46.826;8.650;2023-05-01T04:05:55;95989.94;;;11.00;100.00
11085;BME280;5596;46.826;8.650;2023-05-01T04:08:23;95998.28;;;10.99;100.00
11085;BME280;5596;46.826;8.650;2023-05-01T04:10:50;95999.94;;;11.00;100.00
11085;BME280;5596;46.826;8.650;2023-05-01T04:13:18;95997.66;;;11.09;100.00
11085;BME280;5596;46.826;8.650;2023-05-01T04:15:45;96001.28;;;11.14;100.00
11085;BME280;5596;46.826;8.650;2023-05-01T04:18:12;95995.91;;;11.14;100.00
11085;BME280;5596;46.826;8.650;2023-05-01T04:20:39;95994.47;;;11.12;100.00
11085;BME280;5596;46.826;8.650;2023-05-01T04:23:06;95996.38;;;11.11;100.00
11085;BME280;5596;46.826;8.650;2023-05-01T04:25:35;96002.19;;;11.20;100.00
11085;BME280;5596;46.826;8.650;2023-05-01T04:28:09;96005.50;;;11.22;100.00
11085;BME280;5596;46.826;8.650;2023-05-01T04:30:36;96006.31;;;11.22;100.00
11085;BME280;5596;46.826;8.650;2023-05-01T04:33:03;96005.59;;;11.15;100.00
11085;BME280;5596;46.826;8.650;2023-05-01T04:35:36;96009.88;;;11.11;100.00
11085;BME280;5596;46.826;8.650;2023-05-01T04:38:03;96006.44;;;11.16;100.00
11085;BME280;5596;46.826;8.650;2023-05-01T04:40:30;96008.19;;;11.22;100.00
11085;BME280;5596;46.826;8.650;2023-05-01T04:42:59;96008.84;;;11.29;100.00
11085;BME280;5596;46.826;8.650;2023-05-01T04:45:26;96015.97;;;11.35;100.00
11085;BME280;5596;46.826;8.650;2023-05-01T04:47:54;96011.41;;;11.35;100.00
11085;BME280;5596;46.826;8.650;2023-05-01T04:50:21;96022.44;;;11.34;100.00
11085;BME280;5596;46.826;8.650;2023-05-01T04:52:48;96011.41;;;11.35;100.00
11085;BME280;5596;46.826;8.650;2023-05-01T04:55:16;96022.28;;;11.41;100.00
11085;BME280;5596;46.826;8.650;2023-05-01T04:58:02;96017.81;;;11.46;100.00
11085;BME280;5596;46.826;8.650;2023-05-01T05:00:30;96026.25;;;11.50;100.00
11085;BME280;5596;46.826;8.650;2023-05-01T05:02:58;96023.94;;;11.42;100.00
11085;BME280;5596;46.826;8.650;2023-05-01T05:05:25;96027.38;;;11.37;100.00
11085;BME280;5596;46.826;8.650;2023-05-01T05:07:52;96031.06;;;11.31;100.00
11085;BME280;5596;46.826;8.650;2023-05-01T05:10:32;96036.72;;;11.29;100.00
11085;BME280;5596;46.826;8.650;2023-05-01T05:13:20;96042.44;;;11.33;100.00
11085;BME280;5596;46.826;8.650;2023-05-01T05:15:54;96041.22;;;11.41;100.00
11085;BME280;5596;46.826;8.650;2023-05-01T05:18:22;96038.84;;;11.44;100.00
11085;BME280;5596;46.826;8.650;2023-05-01T05:20:50;96038.84;;;11.44;100.00
11085;BME280;5596;46.826;8.650;2023-05-01T05:23:17;96038.50;;;11.41;100.00
11085;BME280;5596;46.826;8.650;2023-05-01T05:25:43;96041.56;;;11.44;100.00
11085;BME280;5596;46.826;8.650;2023-05-01T05:28:10;96040.81;;;11.49;100.00
11085;BME280;5596;46.826;8.650;2023-05-01T05:30:39;96044.59;;;11.48;100.00
11085;BME280;5596;46.826;8.650;2023-05-01T05:33:07;96051.63;;;11.49;100.00
11085;BME280;5596;46.826;8.650;2023-05-01T05:35:35;96040.34;;;11.52;100.00
11085;BME280;5596;46.826;8.650;2023-05-01T05:38:02;96038.69;;;11.51;100.00
11085;BME280;5596;46.826;8.650;2023-05-01T05:40:32;96046.56;;;11.52;100.00
11085;BME280;5596;46.826;8.650;2023-05-01T05:42:59;96052.81;;;11.53;100.00
11085;BME280;5596;46.826;8.650;2023-05-01T05:45:28;96048.69;;;11.50;100.00
11085;BME280;5596;46.826;8.650;2023-05-01T05:47:57;96054.09;;;11.50;100.00
11085;BME280;5596;46.826;8.650;2023-05-01T05:50:25;96050.69;;;11.55;100.00
11085;BME280;5596;46.826;8.650;2023-05-01T05:52:52;96052.81;;;11.53;100.00
11085;BME280;5596;46.826;8.650;2023-05-01T05:55:19;96046.50;;;11.47;100.00
11085;BME280;5596;46.826;8.650;2023-05-01T05:57:58;96050.91;;;11.53;100.00
11085;BME280;5596;46.826;8.650;2023-05-01T06:00:25;96059.69;;;11.60;100.00
11085;BME280;5596;46.826;8.650;2023-05-01T06:02:53;96057.81;;;11.61;100.00
11085;BME280;5596;46.826;8.650;2023-05-01T06:05:24;96050.53;;;11.61;100.00
11085;BME280;5596;46.826;8.650;2023-05-01T06:07:51;96051.34;;;11.62;100.00
11085;BME280;5596;46.826;8.650;2023-05-01T06:10:20;96061.19;;;11.68;100.00
11085;BME280;5596;46.826;8.650;2023-05-01T06:12:47;96058.56;;;11.73;100.00
11085;BME280;5596;46.826;8.650;2023-05-01T06:15:15;96054.22;;;11.72;100.00
11085;BME280;5596;46.826;8.650;2023-05-01T06:17:46;96058.09;;;11.76;100.00
11085;BME280;5596;46.826;8.650;2023-05-01T06:20:14;96055.16;;;11.78;100.00
11085;BME280;5596;46.826;8.650;2023-05-01T06:22:42;96054.91;;;11.79;100.00
11085;BME280;5596;46.826;8.650;2023-05-01T06:25:15;96054.44;;;11.82;100.00
11085;BME280;5596;46.826;8.650;2023-05-01T06:27:42;96055.56;;;11.86;100.00
11085;BME280;5596;46.826;8.650;2023-05-01T06:30:09;96056.97;;;11.89;100.00
11085;BME280;5596;46.826;8.650;2023-05-01T06:32:39;96060.50;;;11.89;100.00
11085;BME280;5596;46.826;8.650;2023-05-01T06:35:08;96061.88;;;11.92;100.00
11085;BME280;5596;46.826;8.650;2023-05-01T06:37:36;96065.16;;;11.94;100.00
11085;BME280;5596;46.826;8.650;2023-05-01T06:40:07;96061.63;;;11.93;100.00
11085;BME280;5596;46.826;8.650;2023-05-01T06:42:34;96066.97;;;11.88;100.00
11085;BME280;5596;46.826;8.650;2023-05-01T06:45:00;96067.56;;;11.90;100.00
11085;BME280;5596;46.826;8.650;2023-05-01T06:47:28;96071.22;;;11.84;100.00
11085;BME280;5596;46.826;8.650;2023-05-01T06:49:54;96070.75;;;11.87;100.00
11085;BME280;5596;46.826;8.650;2023-05-01T06:52:21;96073.22;;;11.89;100.00
11085;BME280;5596;46.826;8.650;2023-05-01T06:54:48;96074.84;;;11.90;100.00
11085;BME280;5596;46.826;8.650;2023-05-01T06:57:16;96080.75;;;11.87;100.00
11085;BME280;5596;46.826;8.650;2023-05-01T06:59:43;96078.09;;;11.92;100.00
11085;BME280;5596;46.826;8.650;2023-05-01T07:02:11;96082.38;;;11.88;100.00
11085;BME280;5596;46.826;8.650;2023-05-01T07:04:38;96091.22;;;11.83;100.00
11085;BME280;5596;46.826;8.650;2023-05-01T07:07:04;96087.38;;;11.79;100.00
11085;BME280;5596;46.826;8.650;2023-05-01T07:09:31;96101.50;;;11.81;100.00
11085;BME280;5596;46.826;8.650;2023-05-01T07:11:59;96094.50;;;11.85;100.00
11085;BME280;5596;46.826;8.650;2023-05-01T07:14:28;96098.84;;;11.86;100.00
11085;BME280;5596;46.826;8.650;2023-05-01T07:16:55;96102.88;;;11.84;100.00
11085;BME280;5596;46.826;8.650;2023-05-01T07:19:22;96103.03;;;11.77;100.00
11085;BME280;5596;46.826;8.650;2023-05-01T07:21:50;96099.78;;;11.63;100.00
11085;BME280;5596;46.826;8.650;2023-05-01T07:24:17;96108.06;;;11.57;100.00
11085;BME280;5596;46.826;8.650;2023-05-01T07:26:43;96098.84;;;11.58;100.00
11085;BME280;5596;46.826;8.650;2023-05-01T07:29:10;96101.81;;;11.56;100.00
11085;BME280;5596;46.826;8.650;2023-05-01T07:31:38;96103.78;;;11.61;100.00
11085;BME280;5596;46.826;8.650;2023-05-01T07:34:06;96105.22;;;11.52;100.00
11085;BME280;5596;46.826;8.650;2023-05-01T07:36:32;96113.81;;;11.49;100.00
11085;BME280;5596;46.826;8.650;2023-05-01T07:38:59;96113.81;;;11.49;100.00
11085;BME280;5596;46.826;8.650;2023-05-01T07:41:26;96110.56;;;11.47;100.00
11085;BME280;5596;46.826;8.650;2023-05-01T07:43:53;96116.53;;;11.49;100.00
11085;BME280;5596;46.826;8.650;2023-05-01T07:46:20;96117.22;;;11.56;100.00
11085;BME280;5596;46.826;8.650;2023-05-01T07:48:48;96116.41;;;11.55;100.00
11085;BME280;5596;46.826;8.650;2023-05-01T07:51:15;96128.75;;;11.51;100.00
11085;BME280;5596;46.826;8.650;2023-05-01T07:53:43;96124.31;;;11.45;100.00
11085;BME280;5596;46.826;8.650;2023-05-01T07:56:11;96120.31;;;11.48;100.00
11085;BME280;5596;46.826;8.650;2023-05-01T07:58:38;96127.59;;;11.47;100.00
11085;BME280;5596;46.826;8.650;2023-05-01T08:01:06;96126.38;;;11.55;100.00
11085;BME280;5596;46.826;8.650;2023-05-01T08:03:33;96128.03;;;11.56;100.00
11085;BME280;5596;46.826;8.650;2023-05-01T08:06:02;96130.88;;;11.49;100.00
11085;BME280;5596;46.826;8.650;2023-05-01T08:08:29;96138.28;;;11.54;100.00
11085;BME280;5596;46.826;8.650;2023-05-01T08:10:56;96135.75;;;11.64;100.00
11085;BME280;5596;46.826;8.650;2023-05-01T08:13:23;96128.31;;;11.71;100.00
11085;BME280;5596;46.826;8.650;2023-05-01T08:15:49;96136.31;;;11.78;100.00
11085;BME280;5596;46.826;8.650;2023-05-01T08:18:16;96143.13;;;11.68;100.00
11085;BME280;5596;46.826;8.650;2023-05-01T08:20:45;96141.72;;;11.66;100.00
11085;BME280;5596;46.826;8.650;2023-05-01T08:23:13;96146.75;;;11.74;100.00
11085;BME280;5596;46.826;8.650;2023-05-01T08:25:40;96150.66;;;11.78;100.00
11085;BME280;5596;46.826;8.650;2023-05-01T08:28:08;96143.19;;;11.85;100.00
11085;BME280;5596;46.826;8.650;2023-05-01T08:30:34;96147.94;;;11.78;100.00
11085;BME280;5596;46.826;8.650;2023-05-01T08:33:01;96149.91;;;11.83;100.00
11085;BME280;5596;46.826;8.650;2023-05-01T08:35:28;96148.38;;;11.87;100.00
11085;BME280;5596;46.826;8.650;2023-05-01T08:37:55;96153.88;;;11.92;100.00
11085;BME280;5596;46.826;8.650;2023-05-01T08:40:24;96153.38;;;11.95;100.00
11085;BME280;5596;46.826;8.650;2023-05-01T08:42:52;96158.81;;;11.95;100.00
11085;BME280;5596;46.826;8.650;2023-05-01T08:45:20;96163.78;;;11.86;100.00
11085;BME280;5596;46.826;8.650;2023-05-01T08:47:49;96157.56;;;11.86;100.00
11085;BME280;5596;46.826;8.650;2023-05-01T08:50:18;96159.94;;;11.82;100.00
11085;BME280;5596;46.826;8.650;2023-05-01T08:52:46;96157.78;;;11.84;100.00
11085;BME280;5596;46.826;8.650;2023-05-01T08:55:16;96163.44;;;11.83;100.00
11085;BME280;5596;46.826;8.650;2023-05-01T08:57:45;96162.72;;;11.87;100.00
11085;BME280;5596;46.826;8.650;2023-05-01T09:00:13;96160.72;;;11.83;100.00
11085;BME280;5596;46.826;8.650;2023-05-01T09:02:43;96161.16;;;11.91;100.00
11085;BME280;5596;46.826;8.650;2023-05-01T09:05:11;96159.47;;;12.02;100.00
11085;BME280;5596;46.826;8.650;2023-05-01T09:07:38;96171.78;;;12.09;100.00
11085;BME280;5596;46.826;8.650;2023-05-01T09:10:06;96161.06;;;12.15;100.00
11085;BME280;5596;46.826;8.650;2023-05-01T09:12:33;96167.19;;;12.10;100.00
11085;BME280;5596;46.826;8.650;2023-05-01T09:15:02;96164.25;;;12.11;100.00
11085;BME280;5596;46.826;8.650;2023-05-01T09:17:29;96176.22;;;12.16;100.00
11085;BME280;5596;46.826;8.650;2023-05-01T09:19:57;96172.94;;;12.13;100.00
11085;BME280;5596;46.826;8.650;2023-05-01T09:22:24;96176.72;;;12.12;100.00
11085;BME280;5596;46.826;8.650;2023-05-01T09:24:51;96165.41;;;12.16;100.00
11085;BME280;5596;46.826;8.650;2023-05-01T09:27:18;96179.41;;;12.12;100.00
11085;BME280;5596;46.826;8.650;2023-05-01T09:29:45;96175.53;;;12.08;100.00
11085;BME280;5596;46.826;8.650;2023-05-01T09:32:14;96176.72;;;12.12;100.00
11085;BME280;5596;46.826;8.650;2023-05-01T09:34:41;96175.84;;;12.24;100.00
11085;BME280;5596;46.826;8.650;2023-05-01T09:37:11;96181.09;;;12.30;100.00
11085;BME280;5596;46.826;8.650;2023-05-01T09:39:38;96183.63;;;12.37;100.00
11085;BME280;5596;46.826;8.650;2023-05-01T09:42:06;96189.84;;;12.37;100.00
11085;BME280;5596;46.826;8.650;2023-05-01T09:44:39;96181.50;;;12.39;100.00
11085;BME280;5596;46.826;8.650;2023-05-01T09:47:06;96184.44;;;12.37;100.00
11085;BME280;5596;46.826;8.650;2023-05-01T09:52:20;96182.88;;;12.25;100.00
11085;BME280;5596;46.826;8.650;2023-05-01T09:54:46;96189.38;;;12.24;100.00
11085;BME280;5596;46.826;8.650;2023-05-01T09:57:13;96180.25;;;12.30;100.00
11085;BME280;5596;46.826;8.650;2023-05-01T09:59:40;96189.38;;;12.24;100.00
11085;BME280;5596;46.826;8.650;2023-05-01T10:02:07;96186.16;;;12.27;100.00
11085;BME280;5596;46.826;8.650;2023-05-01T10:04:56;96184.91;;;12.34;100.00
11085;BME280;5596;46.826;8.650;2023-05-01T10:07:25;96180.75;;;12.43;100.00
11085;BME280;5596;46.826;8.650;2023-05-01T10:09:52;96181.31;;;12.45;100.00
11085;BME280;5596;46.826;8.650;2023-05-01T10:12:22;96177.56;;;12.46;100.00
11085;BME280;5596;46.826;8.650;2023-05-01T10:14:51;96177.72;;;12.40;100.00
11085;BME280;5596;46.826;8.650;2023-05-01T10:17:17;96181.16;;;12.35;100.00
11085;BME280;5596;46.826;8.650;2023-05-01T10:19:45;96176.38;;;12.42;100.00
11085;BME280;5596;46.826;8.650;2023-05-01T10:22:13;96183.69;;;12.42;100.00
11085;BME280;5596;46.826;8.650;2023-05-01T10:24:42;96175.50;;;12.37;100.00
11085;BME280;5596;46.826;8.650;2023-05-01T10:27:10;96182.47;;;12.16;100.00
11085;BME280;5596;46.826;8.650;2023-05-01T10:29:38;96175.69;;;12.02;100.00
11085;BME280;5596;46.826;8.650;2023-05-01T10:32:05;96174.44;;;11.93;100.00
11085;BME280;5596;46.826;8.650;2023-05-01T10:34:34;96171.28;;;11.96;100.00
11085;BME280;5596;46.826;8.650;2023-05-01T10:37:03;96168.50;;;12.07;100.00
11085;BME280;5596;46.826;8.650;2023-05-01T10:39:32;96173.94;;;12.07;100.00
11085;BME280;5596;46.826;8.650;2023-05-01T10:42:01;96172.63;;;12.27;100.00
11085;BME280;5596;46.826;8.650;2023-05-01T10:44:28;96165.06;;;12.29;100.00
11085;BME280;5596;46.826;8.650;2023-05-01T10:46:56;96167.84;;;12.34;100.00
11085;BME280;5596;46.826;8.650;2023-05-01T10:49:22;96167.38;;;12.37;100.00
11085;BME280;5596;46.826;8.650;2023-05-01T10:51:59;96168.84;;;12.28;100.00
11085;BME280;5596;46.826;8.650;2023-05-01T10:54:28;96167.38;;;12.37;100.00
11085;BME280;5596;46.826;8.650;2023-05-01T10:56:55;96164.91;;;12.52;100.00
11085;BME280;5596;46.826;8.650;2023-05-01T10:59:24;96161.31;;;12.63;100.00
11085;BME280;5596;46.826;8.650;2023-05-01T11:01:51;96168.19;;;12.54;100.00
11085;BME280;5596;46.826;8.650;2023-05-01T11:07:13;96160.41;;;12.58;100.00
11085;BME280;5596;46.826;8.650;2023-05-01T11:09:42;96159.25;;;12.54;100.00
11085;BME280;5596;46.826;8.650;2023-05-01T11:12:10;96166.31;;;12.55;100.00
11085;BME280;5596;46.826;8.650;2023-05-01T11:20:10;96156.63;;;12.75;100.00
11085;BME280;5596;46.826;8.650;2023-05-01T11:22:39;96159.22;;;12.87;100.00
11085;BME280;5596;46.826;8.650;2023-05-01T11:25:16;96157.22;;;12.99;100.00
11085;BME280;5596;46.826;8.650;2023-05-01T11:27:46;96158.09;;;13.05;100.00
11085;BME280;5596;46.826;8.650;2023-05-01T11:30:13;96153.84;;;13.09;100.00
11085;BME280;5596;46.826;8.650;2023-05-01T11:32:42;96152.25;;;13.13;100.00
11085;BME280;5596;46.826;8.650;2023-05-01T11:35:15;96157.78;;;13.18;100.00
11085;BME280;5596;46.826;8.650;2023-05-01T11:37:42;96152.91;;;13.20;100.00
11085;BME280;5596;46.826;8.650;2023-05-01T11:42:58;96153.44;;;13.17;100.00
11085;BME280;5596;46.826;8.650;2023-05-01T11:45:25;96157.38;;;13.09;100.00
11085;BME280;5596;46.826;8.650;2023-05-01T11:47:52;96149.72;;;13.06;100.00
11085;BME280;5596;46.826;8.650;2023-05-01T11:50:20;96156.28;;;13.10;100.00
11085;BME280;5596;46.826;8.650;2023-05-01T11:52:48;96154.97;;;13.13;100.00
11085;BME280;5596;46.826;8.650;2023-05-01T11:55:17;96151.22;;;13.14;100.00
11085;BME280;5596;46.826;8.650;2023-05-01T11:57:45;96153.44;;;13.17;100.00
11085;BME280;5596;46.826;8.650;2023-05-01T12:00:12;96164.34;;;13.22;100.00
11085;BME280;5596;46.826;8.650;2023-05-01T12:02:40;96157.03;;;13.06;100.00
11085;BME280;5596;46.826;8.650;2023-05-01T12:05:22;96158.19;;;13.10;100.00
11085;BME280;5596;46.826;8.650;2023-05-01T12:07:48;96157.78;;;13.18;100.00
11085;BME280;5596;46.826;8.650;2023-05-01T12:10:16;96153.00;;;13.25;100.00
11085;BME280;5596;46.826;8.650;2023-05-01T12:12:43;96150.34;;;13.30;100.00
11085;BME280;5596;46.826;8.650;2023-05-01T12:15:10;96148.06;;;13.22;100.00
11085;BME280;5596;46.826;8.650;2023-05-01T12:17:37;96148.41;;;13.09;100.00
11085;BME280;5596;46.826;8.650;2023-05-01T12:20:04;96152.50;;;13.11;100.00
11085;BME280;5596;46.826;8.650;2023-05-01T12:22:33;96154.91;;;13.08;100.00
11085;BME280;5596;46.826;8.650;2023-05-01T12:25:00;96155.81;;;13.13;100.00
11085;BME280;5596;46.826;8.650;2023-05-01T12:27:28;96151.03;;;13.20;100.00
11085;BME280;5596;46.826;8.650;2023-05-01T12:29:57;96148.69;;;13.29;100.00
11085;BME280;5596;46.826;8.650;2023-05-01T12:32:30;96151.94;;;13.26;100.00
11085;BME280;5596;46.826;8.650;2023-05-01T12:34:57;96147.56;;;13.25;100.00
11085;BME280;5596;46.826;8.650;2023-05-01T12:37:28;96151.16;;;13.31;100.00
11085;BME280;5596;46.826;8.650;2023-05-01T12:39:56;96152.91;;;13.20;100.00
11085;BME280;5596;46.826;8.650;2023-05-01T12:42:23;96145.56;;;13.15;100.00
11085;BME280;5596;46.826;8.650;2023-05-01T12:44:56;96145.38;;;13.05;100.00
11085;BME280;5596;46.826;8.650;2023-05-01T12:47:24;96149.41;;;13.03;100.00
11085;BME280;5596;46.826;8.650;2023-05-01T12:49:59;96146.31;;;12.94;100.00
11085;BME280;5596;46.826;8.650;2023-05-01T12:52:28;96144.50;;;13.00;100.00
11085;BME280;5596;46.826;8.650;2023-05-01T12:55:01;96144.56;;;13.05;100.00
11085;BME280;5596;46.826;8.650;2023-05-01T12:57:29;96144.97;;;13.13;100.00
11085;BME280;5596;46.826;8.650;2023-05-01T12:59:59;96152.69;;;13.05;100.00
11085;BME280;5596;46.826;8.650;2023-05-01T13:02:29;96147.28;;;13.05;100.00
11085;BME280;5596;46.826;8.650;2023-05-01T13:05:04;96160.25;;;13.03;100.00
11085;BME280;5596;46.826;8.650;2023-05-01T13:07:34;96162.66;;;12.99;100.00
11085;BME280;5596;46.826;8.650;2023-05-01T13:10:02;96158.38;;;12.86;100.00
11085;BME280;5596;46.826;8.650;2023-05-01T13:12:30;96166.63;;;12.75;100.00
11085;BME280;5596;46.826;8.650;2023-05-01T13:14:58;96160.69;;;12.78;100.00
11085;BME280;5596;46.826;8.650;2023-05-01T13:17:25;96158.81;;;12.78;100.00
11085;BME280;5596;46.826;8.650;2023-05-01T13:19:52;96160.69;;;12.78;100.00
11085;BME280;5596;46.826;8.650;2023-05-01T13:22:26;96164.56;;;12.82;100.00